Terminal Aerodrome Forecast
Issued by NWS

Home | Current Version | Previous Version | Text Only | Print | Product List | Glossary On
Versions: 1 2 3 4 5 6 7 8 9 10 11 12
000
FTUS45 KVEF 250520
TAFBIH
TAF
KBIH 250520Z 2506/2606 33007KT P6SM FEW140
     FM251500 VRB05KT P6SM FEW140
     FM252100 17008G16KT P6SM FEW120
     FM260100 16008KT P6SM FEW120=

USA.gov is the U.S. government's official web portal to all federal, state and local government web resources and services.